createdAt,value
2018-05-18T00:00:16.740Z,93.22
2018-05-18T00:01:16.775Z,92.36
2018-05-18T00:02:16.809Z,92.83
2018-05-18T00:03:16.849Z,92.65
2018-05-18T00:04:16.878Z,93.02
2018-05-18T00:05:16.912Z,92.55
2018-05-18T00:06:16.954Z,92.17
2018-05-18T00:07:16.981Z,92.93
2018-05-18T00:08:17.015Z,92.83
2018-05-18T00:09:17.049Z,92.36
2018-05-18T00:10:17.084Z,92.17
2018-05-18T00:11:17.118Z,92.36
2018-05-18T00:12:17.155Z,92.65
2018-05-18T00:13:17.199Z,92.26
2018-05-18T00:14:17.222Z,92.74
2018-05-18T00:15:17.257Z,92.07
2018-05-18T00:16:17.290Z,92.17
2018-05-18T00:17:17.325Z,92.07
2018-05-18T00:18:17.363Z,92.46
2018-05-18T00:19:17.393Z,92.12
2018-05-18T00:20:17.428Z,92.98
2018-05-18T00:21:17.462Z,92.93
2018-05-18T00:22:17.495Z,92.65
2018-05-18T00:23:17.532Z,92.50
2018-05-18T00:24:17.562Z,92.88
2018-05-18T00:25:17.602Z,93.27
2018-05-18T00:26:17.632Z,93.36
2018-05-18T00:27:17.665Z,93.27
2018-05-18T00:28:17.701Z,92.88
2018-05-18T00:29:17.733Z,93.27
2018-05-18T00:30:17.769Z,93.36
2018-05-18T00:31:17.805Z,93.31
2018-05-18T00:32:17.836Z,93.17
2018-05-18T00:33:17.873Z,92.98
2018-05-18T00:34:17.907Z,92.98
2018-05-18T00:35:17.941Z,93.08
2018-05-18T00:36:17.973Z,93.27
2018-05-18T00:37:18.008Z,93.36
2018-05-18T00:38:18.045Z,93.84
2018-05-18T00:39:18.077Z,93.22
2018-05-18T00:40:18.111Z,93.31
2018-05-18T00:41:18.144Z,93.36
2018-05-18T00:42:18.182Z,93.17
2018-05-18T00:43:18.215Z,93.46
2018-05-18T00:44:18.247Z,93.74
2018-05-18T00:45:18.283Z,93.55
2018-05-18T00:46:18.316Z,93.27
2018-05-18T00:47:18.351Z,93.17
2018-05-18T00:48:18.386Z,93.84
2018-05-18T00:49:18.418Z,94.03
2018-05-18T00:50:18.454Z,94.03
2018-05-18T00:51:18.488Z,93.84
2018-05-18T00:52:18.523Z,93.88
2018-05-18T00:53:18.556Z,94.27
2018-05-18T00:54:18.603Z,94.36
2018-05-18T00:55:18.628Z,94.12
2018-05-18T00:56:18.658Z,93.55
2018-05-18T00:57:18.695Z,93.65
2018-05-18T00:58:18.729Z,94.22
2018-05-18T00:59:18.760Z,93.65
2018-05-18T01:00:18.797Z,93.79
2018-05-18T01:01:18.830Z,93.79
2018-05-18T01:02:18.864Z,93.51
2018-05-18T01:03:18.947Z,93.88
2018-05-18T01:04:18.940Z,93.74
2018-05-18T01:05:18.976Z,93.46
2018-05-18T01:06:19.002Z,93.02
2018-05-18T01:07:19.037Z,92.98
2018-05-18T01:08:19.078Z,93.36
2018-05-18T01:09:19.107Z,93.46
2018-05-18T01:10:19.142Z,93.93
2018-05-18T01:11:19.173Z,94.12
2018-05-18T01:12:19.208Z,93.74
2018-05-18T01:13:19.242Z,93.84
2018-05-18T01:14:19.277Z,93.84
2018-05-18T01:15:19.312Z,93.84
2018-05-18T01:16:19.350Z,94.12
2018-05-18T01:17:19.381Z,94.41
2018-05-18T01:18:19.414Z,93.74
2018-05-18T01:19:19.450Z,93.84
2018-05-18T01:20:19.564Z,94.12
2018-05-18T01:21:19.524Z,93.74
2018-05-18T01:22:19.553Z,93.93
2018-05-18T01:23:19.591Z,93.36
2018-05-18T01:24:19.621Z,93.36
2018-05-18T01:25:19.656Z,93.27
2018-05-18T01:26:19.691Z,93.36
2018-05-18T01:27:19.726Z,93.93
2018-05-18T01:28:19.757Z,93.08
2018-05-18T01:29:19.790Z,92.88
2018-05-18T01:30:19.825Z,93.08
2018-05-18T01:31:19.862Z,93.17
2018-05-18T01:32:19.892Z,92.98
2018-05-18T01:33:19.929Z,93.27
2018-05-18T01:34:19.961Z,93.08
2018-05-18T01:35:19.998Z,92.03
2018-05-18T01:36:20.029Z,92.03
2018-05-18T01:37:20.067Z,91.93
2018-05-18T01:38:20.102Z,92.03
2018-05-18T01:39:20.132Z,92.12
2018-05-18T01:40:20.166Z,92.03
2018-05-18T01:41:20.200Z,91.74
2018-05-18T01:42:20.235Z,92.12
2018-05-18T01:43:20.276Z,92.12
2018-05-18T01:44:20.304Z,92.12
2018-05-18T01:45:20.337Z,92.41
2018-05-18T01:46:20.372Z,92.79
2018-05-18T01:47:20.415Z,92.50
2018-05-18T01:48:20.439Z,92.60
2018-05-18T01:49:20.475Z,93.08
2018-05-18T01:50:20.510Z,93.08
2018-05-18T01:51:20.549Z,92.88
2018-05-18T01:52:20.580Z,92.88
2018-05-18T01:53:20.613Z,92.69
2018-05-18T01:54:20.649Z,92.41
2018-05-18T01:55:20.678Z,92.32
2018-05-18T01:56:20.717Z,92.12
2018-05-18T01:57:20.756Z,92.60
2018-05-18T01:58:20.781Z,93.08
2018-05-18T01:59:20.817Z,93.08
2018-05-18T02:00:20.859Z,92.88
2018-05-18T02:01:20.883Z,93.27
2018-05-18T02:02:20.918Z,92.88
2018-05-18T02:03:20.954Z,92.41
2018-05-18T02:04:20.991Z,92.98
2018-05-18T02:05:21.021Z,92.69
2018-05-18T02:06:21.055Z,93.17
2018-05-18T02:07:21.088Z,92.41
2018-05-18T02:08:21.134Z,93.36
2018-05-18T02:09:21.155Z,93.27
2018-05-18T02:10:21.190Z,93.08
2018-05-18T02:11:21.225Z,93.17
2018-05-18T02:12:21.258Z,93.93
2018-05-18T02:13:21.292Z,93.46
2018-05-18T02:14:21.327Z,93.12
2018-05-18T02:15:21.361Z,93.46
2018-05-18T02:16:21.395Z,93.27
2018-05-18T02:17:21.427Z,93.27
2018-05-18T02:18:21.462Z,93.08
2018-05-18T02:19:21.496Z,92.88
2018-05-18T02:20:21.530Z,93.08
2018-05-18T02:21:21.566Z,93.17
2018-05-18T02:22:21.600Z,92.79
2018-05-18T02:23:21.633Z,93.17
2018-05-18T02:24:21.667Z,93.17
2018-05-18T02:25:21.706Z,93.27
2018-05-18T02:26:21.739Z,93.08
2018-05-18T02:27:21.769Z,93.17
2018-05-18T02:28:21.804Z,93.27
2018-05-18T02:29:21.841Z,93.08
2018-05-18T02:30:21.873Z,93.36
2018-05-18T02:31:21.907Z,92.88
2018-05-18T02:32:21.946Z,93.17
2018-05-18T02:33:21.980Z,93.17
2018-05-18T02:34:22.016Z,93.08
2018-05-18T02:35:22.044Z,93.27
2018-05-18T02:36:22.080Z,93.36
2018-05-18T02:37:22.114Z,93.08
2018-05-18T02:38:22.154Z,93.08
2018-05-18T02:39:22.183Z,93.08
2018-05-18T02:40:22.214Z,92.79
2018-05-18T02:41:22.249Z,92.98
2018-05-18T02:42:22.284Z,93.17
2018-05-18T02:43:22.320Z,93.27
2018-05-18T02:44:22.351Z,93.36
2018-05-18T02:45:22.384Z,93.27
2018-05-18T02:46:22.421Z,93.17
2018-05-18T02:47:22.453Z,93.08
2018-05-18T02:48:22.488Z,93.08
2018-05-18T02:49:22.524Z,92.79
2018-05-18T02:50:22.557Z,92.98
2018-05-18T02:51:22.590Z,93.17
2018-05-18T02:52:22.627Z,93.17
2018-05-18T02:53:22.669Z,93.08
2018-05-18T02:54:22.694Z,93.08
2018-05-18T02:55:22.732Z,93.08
2018-05-18T02:56:22.771Z,94.12
2018-05-18T02:57:22.805Z,93.74
2018-05-18T02:58:22.846Z,94.32
2018-05-18T02:59:22.864Z,94.60
2018-05-18T03:00:22.904Z,94.41
2018-05-18T03:01:22.934Z,94.32
2018-05-18T03:02:22.972Z,94.41
2018-05-18T03:03:23.001Z,94.41
2018-05-18T03:04:23.042Z,94.32
2018-05-18T03:05:23.121Z,94.22
2018-05-18T03:06:23.104Z,94.51
2018-05-18T03:07:23.139Z,94.12
2018-05-18T03:08:23.176Z,94.79
2018-05-18T03:09:23.207Z,94.70
2018-05-18T03:10:23.248Z,94.51
2018-05-18T03:11:23.279Z,94.12
2018-05-18T03:12:23.311Z,94.41
2018-05-18T03:13:23.349Z,94.51
2018-05-18T03:14:23.379Z,93.74
2018-05-18T03:15:23.411Z,93.84
2018-05-18T03:16:23.455Z,93.17
2018-05-18T03:17:23.484Z,93.65
2018-05-18T03:18:23.513Z,93.36
2018-05-18T03:19:23.547Z,94.03
2018-05-18T03:20:23.582Z,93.93
2018-05-18T03:21:23.615Z,93.08
2018-05-18T03:22:23.651Z,93.84
2018-05-18T03:23:23.683Z,93.46
2018-05-18T03:24:23.719Z,93.93
2018-05-18T03:25:23.754Z,93.17
2018-05-18T03:26:23.803Z,92.88
2018-05-18T03:27:23.820Z,93.65
2018-05-18T03:28:23.852Z,92.88
2018-05-18T03:29:23.886Z,93.36
2018-05-18T03:30:23.921Z,93.46
2018-05-18T03:31:23.960Z,93.36
2018-05-18T03:32:23.991Z,93.17
2018-05-18T03:33:24.035Z,93.41
2018-05-18T03:34:24.057Z,93.55
2018-05-18T03:35:24.099Z,93.55
2018-05-18T03:36:24.126Z,93.36
2018-05-18T03:37:24.159Z,93.27
2018-05-18T03:38:24.198Z,93.55
2018-05-18T03:39:24.228Z,94.17
2018-05-18T03:40:24.260Z,94.03
2018-05-18T03:41:24.296Z,93.36
2018-05-18T03:42:24.338Z,93.27
2018-05-18T03:43:24.364Z,93.55
2018-05-18T03:44:24.403Z,93.74
2018-05-18T03:45:24.431Z,94.03
2018-05-18T03:46:24.485Z,93.79
2018-05-18T03:47:24.503Z,93.65
2018-05-18T03:48:24.547Z,94.27
2018-05-18T03:49:24.573Z,94.22
2018-05-18T03:50:24.611Z,93.93
2018-05-18T03:51:24.636Z,94.60
2018-05-18T03:52:24.677Z,93.84
2018-05-18T03:53:24.705Z,93.46
2018-05-18T03:54:24.736Z,93.65
2018-05-18T03:55:24.771Z,93.65
2018-05-18T03:56:24.805Z,94.12
2018-05-18T03:57:24.839Z,93.84
2018-05-18T03:58:24.875Z,93.74
2018-05-18T03:59:24.907Z,93.46
2018-05-18T04:00:24.942Z,93.74
2018-05-18T04:01:25.002Z,94.41
2018-05-18T04:02:25.010Z,93.46
2018-05-18T04:03:25.046Z,93.08
2018-05-18T04:04:25.078Z,93.08
2018-05-18T04:05:25.118Z,93.08
2018-05-18T04:06:25.146Z,93.08
2018-05-18T04:07:25.181Z,93.27
2018-05-18T04:08:25.312Z,93.17
2018-05-18T04:09:25.247Z,93.17
2018-05-18T04:10:25.351Z,93.36
2018-05-18T04:11:25.315Z,93.27
2018-05-18T04:12:25.354Z,93.17
2018-05-18T04:13:25.384Z,92.88
2018-05-18T04:14:25.440Z,93.84
2018-05-18T04:15:25.452Z,93.60
2018-05-18T04:16:25.489Z,93.84
2018-05-18T04:17:25.520Z,94.12
2018-05-18T04:18:25.557Z,93.84
2018-05-18T04:19:25.621Z,94.51
2018-05-18T04:20:25.623Z,94.41
2018-05-18T04:21:25.658Z,94.32
2018-05-18T04:22:25.692Z,93.65
2018-05-18T04:23:25.726Z,94.32
2018-05-18T04:24:25.764Z,92.88
2018-05-18T04:25:25.807Z,93.36
2018-05-18T04:26:25.829Z,93.36
2018-05-18T04:27:25.863Z,93.27
2018-05-18T04:28:25.897Z,92.50
2018-05-18T04:29:25.930Z,93.08
2018-05-18T04:30:26.012Z,93.17
2018-05-18T04:31:25.999Z,92.12
2018-05-18T04:32:26.033Z,92.03
2018-05-18T04:33:26.066Z,91.93
2018-05-18T04:34:26.103Z,92.03
2018-05-18T04:35:26.139Z,92.41
2018-05-18T04:36:26.167Z,92.65
2018-05-18T04:37:26.204Z,92.50
2018-05-18T04:38:26.238Z,92.12
2018-05-18T04:39:26.270Z,92.32
2018-05-18T04:40:26.313Z,92.17
2018-05-18T04:41:26.343Z,92.12
2018-05-18T04:42:26.374Z,91.69
2018-05-18T04:43:26.412Z,92.46
2018-05-18T04:44:26.442Z,92.60
2018-05-18T04:45:26.479Z,92.22
2018-05-18T04:46:26.511Z,92.12
2018-05-18T04:47:26.543Z,92.08
2018-05-18T04:48:26.580Z,92.36
2018-05-18T04:49:26.612Z,93.12
2018-05-18T04:50:26.648Z,92.41
2018-05-18T04:51:26.681Z,93.08
2018-05-18T04:52:26.714Z,92.79
2018-05-18T04:53:26.749Z,92.12
2018-05-18T04:54:26.785Z,91.83
2018-05-18T04:55:26.826Z,92.03
2018-05-18T04:56:26.852Z,91.83
2018-05-18T04:57:26.887Z,92.41
2018-05-18T04:58:26.928Z,91.74
2018-05-18T04:59:26.953Z,91.93
2018-05-18T05:00:26.986Z,92.60
2018-05-18T05:01:27.021Z,92.03
2018-05-18T05:02:27.057Z,91.27
2018-05-18T05:03:27.091Z,91.36
2018-05-18T05:04:27.125Z,91.17
2018-05-18T05:05:27.235Z,92.03
2018-05-18T05:06:27.197Z,91.93
2018-05-18T05:07:27.229Z,92.03
2018-05-18T05:08:27.270Z,92.12
2018-05-18T05:09:27.295Z,92.22
2018-05-18T05:10:27.329Z,92.41
2018-05-18T05:11:27.363Z,92.98
2018-05-18T05:12:27.398Z,93.08
2018-05-18T05:13:27.429Z,93.17
2018-05-18T05:14:27.467Z,92.79
2018-05-18T05:15:27.500Z,92.88
2018-05-18T05:16:27.541Z,92.79
2018-05-18T05:17:27.569Z,92.98
2018-05-18T05:18:27.601Z,93.27
2018-05-18T05:19:27.635Z,92.41
2018-05-18T05:20:27.670Z,92.22
2018-05-18T05:21:27.703Z,92.88
2018-05-18T05:22:27.739Z,92.60
2018-05-18T05:23:27.772Z,91.74
2018-05-18T05:24:27.807Z,92.60
2018-05-18T05:25:27.841Z,92.03
2018-05-18T05:26:27.874Z,92.60
2018-05-18T05:27:27.909Z,92.50
2018-05-18T05:28:27.946Z,92.03
2018-05-18T05:29:27.980Z,92.88
2018-05-18T05:30:28.028Z,92.12
2018-05-18T05:31:28.046Z,92.32
2018-05-18T05:32:28.081Z,93.08
2018-05-18T05:33:28.121Z,94.22
2018-05-18T05:34:28.149Z,94.22
2018-05-18T05:35:28.189Z,94.70
2018-05-18T05:36:28.219Z,94.98
2018-05-18T05:37:28.255Z,94.89
2018-05-18T05:38:28.288Z,94.89
2018-05-18T05:39:28.320Z,95.08
2018-05-18T05:40:28.353Z,95.46
2018-05-18T05:41:28.390Z,95.65
2018-05-18T05:42:28.426Z,95.75
2018-05-18T05:43:28.456Z,96.22
2018-05-18T05:44:28.491Z,96.41
2018-05-18T05:45:28.527Z,96.61
2018-05-18T05:46:28.608Z,96.13
2018-05-18T05:47:28.594Z,96.70
2018-05-18T05:48:28.627Z,96.13
2018-05-18T05:49:28.664Z,97.08
2018-05-18T05:50:28.706Z,97.08
2018-05-18T05:51:28.731Z,97.51
2018-05-18T05:52:28.769Z,97.41
2018-05-18T05:53:28.799Z,98.18
2018-05-18T05:54:28.835Z,97.89
2018-05-18T05:55:28.867Z,98.94
2018-05-18T05:56:28.902Z,98.94
2018-05-18T05:57:28.938Z,99.41
2018-05-18T05:58:29.015Z,99.22
2018-05-18T05:59:29.006Z,99.89
2018-05-18T06:00:29.038Z,99.60
2018-05-18T06:01:29.072Z,99.32
2018-05-18T06:02:29.106Z,99.70
2018-05-18T06:03:29.144Z,99.32
2018-05-18T06:04:29.177Z,99.99
2018-05-18T06:05:29.283Z,99.75
2018-05-18T06:06:29.250Z,99.75
2018-05-18T06:07:29.286Z,99.37
2018-05-18T06:08:29.316Z,99.75
2018-05-18T06:09:29.345Z,99.37
2018-05-18T06:10:29.380Z,99.66
2018-05-18T06:11:29.422Z,99.99
2018-05-18T06:12:29.448Z,99.99
2018-05-18T06:13:29.483Z,99.80
2018-05-18T06:14:29.516Z,99.60
2018-05-18T06:15:29.548Z,99.56
2018-05-18T06:16:29.588Z,99.51
2018-05-18T06:17:29.619Z,99.70
2018-05-18T06:18:29.652Z,99.46
2018-05-18T06:19:29.710Z,99.99
2018-05-18T06:20:29.728Z,99.66
2018-05-18T06:21:29.751Z,98.90
2018-05-18T06:22:29.787Z,98.99
2018-05-18T06:23:29.820Z,98.99
2018-05-18T06:24:29.854Z,98.90
2018-05-18T06:25:29.890Z,98.99
2018-05-18T06:26:29.925Z,98.51
2018-05-18T06:27:30.056Z,98.13
2018-05-18T06:28:29.992Z,98.03
2018-05-18T06:29:30.031Z,98.03
2018-05-18T06:30:30.065Z,97.66
2018-05-18T06:31:30.103Z,97.56
2018-05-18T06:32:30.128Z,97.75
2018-05-18T06:33:30.172Z,97.75
2018-05-18T06:34:30.230Z,97.75
2018-05-18T06:35:30.331Z,98.03
2018-05-18T06:36:30.265Z,99.08
2018-05-18T06:37:30.300Z,99.08
2018-05-18T06:38:30.388Z,98.56
2018-05-18T06:39:30.367Z,98.99
2018-05-18T06:40:30.402Z,99.95
2018-05-18T06:41:30.436Z,99.37
2018-05-18T06:42:30.475Z,99.56
2018-05-18T06:43:30.513Z,99.32
2018-05-18T06:44:30.542Z,99.04
2018-05-18T06:45:30.572Z,99.32
2018-05-18T06:46:30.611Z,99.04
2018-05-18T06:47:30.638Z,98.94
2018-05-18T06:48:30.673Z,99.60
2018-05-18T06:49:30.710Z,99.51
2018-05-18T06:50:30.741Z,99.89
2018-05-18T06:51:30.775Z,99.99
2018-05-18T06:52:30.815Z,99.99
2018-05-18T06:53:30.857Z,99.99
2018-05-18T06:54:30.883Z,99.99
2018-05-18T06:55:30.910Z,99.99
2018-05-18T06:56:30.946Z,99.99
2018-05-18T06:57:30.981Z,99.99
2018-05-18T06:58:31.020Z,99.99
2018-05-18T06:59:31.047Z,99.99
2018-05-18T07:00:31.080Z,99.99
2018-05-18T07:01:31.117Z,99.99
2018-05-18T07:02:31.150Z,99.99
2018-05-18T07:03:31.183Z,99.99
2018-05-18T07:04:31.217Z,99.99
2018-05-18T07:05:31.303Z,99.99
2018-05-18T07:06:31.296Z,99.99
2018-05-18T07:07:31.321Z,99.99
2018-05-18T07:08:31.361Z,99.99
2018-05-18T07:09:31.388Z,99.99
2018-05-18T07:10:31.425Z,99.99
2018-05-18T07:11:31.454Z,99.99
2018-05-18T07:12:31.491Z,99.99
2018-05-18T07:13:31.531Z,99.99
2018-05-18T07:14:31.558Z,99.99
2018-05-18T07:15:31.593Z,99.99
2018-05-18T07:16:31.717Z,99.99
2018-05-18T07:17:31.660Z,99.99
2018-05-18T07:18:31.701Z,99.99
2018-05-18T07:19:31.728Z,99.99
2018-05-18T07:20:31.763Z,99.99
2018-05-18T07:21:31.796Z,99.99
2018-05-18T07:22:31.844Z,99.99
2018-05-18T07:23:31.866Z,99.99
2018-05-18T07:24:31.900Z,99.99
2018-05-18T07:25:31.936Z,99.99
2018-05-18T07:26:31.970Z,99.95
2018-05-18T07:27:32.001Z,99.99
2018-05-18T07:28:32.035Z,99.99
2018-05-18T07:29:32.070Z,99.99
2018-05-18T07:30:32.103Z,99.99
2018-05-18T07:31:32.242Z,99.99
2018-05-18T07:32:32.180Z,99.99
2018-05-18T07:33:32.207Z,99.99
2018-05-18T07:34:32.238Z,99.99
2018-05-18T07:35:32.276Z,99.99
2018-05-18T07:36:32.310Z,99.99
2018-05-18T07:37:32.343Z,99.99
2018-05-18T07:38:32.376Z,99.56
2018-05-18T07:39:32.409Z,99.18
2018-05-18T07:40:32.444Z,99.99
2018-05-18T07:41:32.478Z,98.99
2018-05-18T07:42:32.517Z,98.22
2018-05-18T07:43:32.553Z,97.85
2018-05-18T07:44:32.581Z,97.17
2018-05-18T07:45:32.627Z,96.98
2018-05-18T07:46:32.648Z,96.13
2018-05-18T07:47:32.682Z,95.79
2018-05-18T07:48:32.729Z,96.27
2018-05-18T07:49:32.753Z,95.32
2018-05-18T07:50:32.797Z,93.98
2018-05-18T07:51:32.824Z,93.60
2018-05-18T07:52:32.864Z,93.51
2018-05-18T07:53:32.907Z,93.02
2018-05-18T07:54:32.930Z,92.36
2018-05-18T07:55:32.961Z,92.65
2018-05-18T07:56:32.997Z,92.55
2018-05-18T07:57:33.038Z,92.46
2018-05-18T07:58:33.064Z,91.78
2018-05-18T07:59:33.106Z,92.36
2018-05-18T08:00:33.131Z,90.64
2018-05-18T08:01:33.175Z,90.88
2018-05-18T08:02:33.203Z,90.69
2018-05-18T08:03:33.240Z,90.07
2018-05-18T08:04:33.279Z,90.64
2018-05-18T08:05:33.308Z,90.50
2018-05-18T08:06:33.345Z,89.88
2018-05-18T08:07:33.434Z,90.40
2018-05-18T08:08:33.411Z,90.11
2018-05-18T08:09:33.445Z,89.35
2018-05-18T08:10:33.487Z,89.25
2018-05-18T08:11:33.517Z,89.45
2018-05-18T08:12:33.553Z,89.25
2018-05-18T08:13:33.589Z,88.11
2018-05-18T08:14:33.629Z,89.06
2018-05-18T08:15:33.657Z,89.16
2018-05-18T08:16:33.692Z,88.87
2018-05-18T08:17:33.728Z,88.59
2018-05-18T08:18:33.766Z,88.11
2018-05-18T08:19:33.795Z,88.49
2018-05-18T08:20:33.834Z,87.63
2018-05-18T08:21:33.887Z,87.35
2018-05-18T08:22:33.902Z,87.68
2018-05-18T08:23:33.935Z,87.01
2018-05-18T08:24:33.970Z,86.43
2018-05-18T08:25:34.007Z,86.53
2018-05-18T08:26:34.043Z,84.81
2018-05-18T08:27:34.136Z,85.00
2018-05-18T08:28:34.113Z,84.91
2018-05-18T08:29:34.148Z,84.38
2018-05-18T08:30:34.184Z,84.66
2018-05-18T08:31:34.219Z,84.14
2018-05-18T08:32:34.257Z,83.76
2018-05-18T08:33:34.290Z,83.76
2018-05-18T08:34:34.324Z,83.95
2018-05-18T08:35:34.362Z,83.67
2018-05-18T08:36:34.396Z,83.38
2018-05-18T08:37:34.433Z,83.13
2018-05-18T08:38:34.468Z,82.94
2018-05-18T08:39:34.503Z,82.46
2018-05-18T08:40:34.538Z,82.08
2018-05-18T08:41:34.577Z,81.60
2018-05-18T08:42:34.610Z,81.60
2018-05-18T08:43:34.645Z,82.31
2018-05-18T08:44:34.683Z,81.99
2018-05-18T08:45:34.718Z,81.79
2018-05-18T08:46:34.758Z,82.60
2018-05-18T08:47:34.804Z,82.37
2018-05-18T08:48:34.827Z,82.37
2018-05-18T08:49:34.863Z,83.42
2018-05-18T08:50:34.898Z,83.80
2018-05-18T08:51:34.949Z,84.14
2018-05-18T08:52:34.972Z,83.13
2018-05-18T08:53:35.009Z,83.13
2018-05-18T08:54:35.046Z,83.42
2018-05-18T08:55:35.081Z,83.61
2018-05-18T08:56:35.116Z,83.33
2018-05-18T08:57:35.152Z,82.84
2018-05-18T08:58:35.187Z,83.33
2018-05-18T08:59:35.224Z,83.47
2018-05-18T09:00:35.335Z,83.57
2018-05-18T09:01:35.314Z,83.70
2018-05-18T09:02:35.337Z,83.23
2018-05-18T09:03:35.386Z,82.28
2018-05-18T09:04:35.416Z,82.18
2018-05-18T09:05:35.442Z,82.37
2018-05-18T09:06:35.481Z,82.18
2018-05-18T09:07:35.514Z,82.18
2018-05-18T09:08:35.553Z,81.36
2018-05-18T09:09:35.586Z,80.65
2018-05-18T09:10:35.630Z,81.41
2018-05-18T09:11:35.660Z,81.79
2018-05-18T09:12:35.701Z,82.37
2018-05-18T09:13:35.732Z,82.37
2018-05-18T09:14:35.767Z,82.18
2018-05-18T09:15:35.802Z,82.28
2018-05-18T09:16:35.839Z,82.18
2018-05-18T09:17:35.885Z,82.41
2018-05-18T09:18:35.924Z,82.22
2018-05-18T09:19:35.951Z,81.55
2018-05-18T09:20:35.986Z,81.45
2018-05-18T09:21:36.023Z,80.50
2018-05-18T09:22:36.065Z,80.17
2018-05-18T09:23:36.102Z,80.88
2018-05-18T09:24:36.132Z,80.40
2018-05-18T09:25:36.184Z,79.93
2018-05-18T09:26:36.205Z,79.06
2018-05-18T09:27:36.241Z,78.87
2018-05-18T09:28:36.277Z,78.78
2018-05-18T09:29:36.316Z,78.11
2018-05-18T09:30:36.361Z,77.48
2018-05-18T09:31:36.390Z,77.86
2018-05-18T09:32:36.423Z,78.05
2018-05-18T09:33:36.469Z,77.09
2018-05-18T09:34:36.496Z,76.52
2018-05-18T09:35:36.534Z,76.94
2018-05-18T09:36:36.571Z,76.75
2018-05-18T09:37:36.608Z,76.56
2018-05-18T09:38:36.643Z,75.89
2018-05-18T09:39:36.681Z,75.79
2018-05-18T09:40:36.719Z,76.08
2018-05-18T09:41:36.752Z,76.27
2018-05-18T09:42:36.791Z,75.79
2018-05-18T09:43:36.829Z,75.41
2018-05-18T09:44:36.866Z,75.54
2018-05-18T09:45:36.911Z,74.11
2018-05-18T09:46:36.991Z,73.82
2018-05-18T09:47:37.082Z,73.91
2018-05-18T09:48:37.019Z,73.82
2018-05-18T09:49:37.052Z,73.82
2018-05-18T09:50:37.090Z,73.54
2018-05-18T09:51:37.134Z,74.11
2018-05-18T09:52:37.164Z,72.16
2018-05-18T09:53:37.201Z,72.77
2018-05-18T09:54:37.488Z,73.15
2018-05-18T09:55:37.299Z,72.58
2018-05-18T09:56:37.315Z,71.81
2018-05-18T09:57:37.353Z,72.48
2018-05-18T09:58:37.390Z,73.28
2018-05-18T09:59:37.428Z,73.09
2018-05-18T10:00:37.481Z,72.32
2018-05-18T10:01:37.504Z,71.33
2018-05-18T10:02:37.549Z,71.84
2018-05-18T10:03:37.579Z,71.75
2018-05-18T10:04:37.624Z,70.76
2018-05-18T10:05:37.664Z,71.14
2018-05-18T10:06:37.694Z,71.42
2018-05-18T10:07:37.730Z,71.91
2018-05-18T10:08:37.771Z,72.67
2018-05-18T10:09:37.806Z,72.19
2018-05-18T10:10:37.848Z,71.66
2018-05-18T10:11:37.884Z,71.08
2018-05-18T10:12:37.919Z,71.94
2018-05-18T10:13:37.965Z,71.52
2018-05-18T10:14:38.000Z,71.71
2018-05-18T10:15:38.033Z,70.47
2018-05-18T10:16:38.071Z,70.12
2018-05-18T10:17:38.110Z,70.79
2018-05-18T10:18:38.293Z,70.85
2018-05-18T10:19:38.186Z,70.95
2018-05-18T10:20:38.225Z,71.91
2018-05-18T10:21:38.262Z,72.09
2018-05-18T10:22:38.299Z,72.54
2018-05-18T10:23:38.339Z,73.79
2018-05-18T10:24:38.375Z,74.26
2018-05-18T10:25:38.417Z,74.74
2018-05-18T10:26:38.453Z,74.74
2018-05-18T10:27:38.489Z,74.65
2018-05-18T10:28:38.528Z,75.22
2018-05-18T10:29:38.564Z,75.37
2018-05-18T10:30:38.604Z,75.22
2018-05-18T10:31:38.639Z,75.37
2018-05-18T10:32:38.685Z,75.09
2018-05-18T10:33:38.715Z,75.18
2018-05-18T10:34:38.755Z,75.09
2018-05-18T10:35:38.796Z,75.85
2018-05-18T10:36:38.828Z,74.51
2018-05-18T10:37:38.919Z,74.51
2018-05-18T10:38:38.903Z,74.32
2018-05-18T10:39:38.971Z,74.70
2018-05-18T10:40:38.976Z,73.97
2018-05-18T10:41:39.015Z,73.50
2018-05-18T10:42:39.055Z,72.92
2018-05-18T10:43:39.109Z,71.97
2018-05-18T10:44:39.127Z,72.00
2018-05-18T10:45:39.164Z,71.62
2018-05-18T10:46:39.203Z,71.81
2018-05-18T10:47:39.242Z,71.04
2018-05-18T10:48:39.279Z,71.17
2018-05-18T10:49:39.316Z,70.12
2018-05-18T10:50:39.356Z,69.10
2018-05-18T10:51:39.396Z,67.47
2018-05-18T10:52:39.426Z,66.61
2018-05-18T10:53:39.466Z,66.74
2018-05-18T10:54:39.503Z,67.22
2018-05-18T10:55:39.540Z,67.12
2018-05-18T10:56:39.579Z,66.96
2018-05-18T10:57:39.616Z,68.56
2018-05-18T10:58:39.737Z,67.54
2018-05-18T10:59:39.695Z,67.35
2018-05-18T11:00:39.732Z,66.86
2018-05-18T11:01:39.772Z,66.64
2018-05-18T11:02:39.809Z,66.16
2018-05-18T11:03:39.845Z,66.74
2018-05-18T11:04:39.886Z,67.60
2018-05-18T11:05:40.078Z,67.69
2018-05-18T11:06:39.963Z,67.57
2018-05-18T11:07:40.002Z,67.47
2018-05-18T11:08:40.045Z,68.05
2018-05-18T11:09:40.078Z,67.66
2018-05-18T11:10:40.116Z,67.57
2018-05-18T11:11:40.152Z,67.85
2018-05-18T11:12:40.192Z,67.72
2018-05-18T11:13:40.238Z,69.01
2018-05-18T11:14:40.270Z,68.40
2018-05-18T11:15:40.306Z,67.82
2018-05-18T11:16:40.347Z,68.40
2018-05-18T11:17:40.390Z,68.68
2018-05-18T11:18:40.430Z,68.21
2018-05-18T11:19:40.475Z,68.49
2018-05-18T11:20:40.500Z,69.26
2018-05-18T11:21:40.537Z,68.52
2018-05-18T11:22:40.575Z,68.49
2018-05-18T11:23:40.613Z,68.78
2018-05-18T11:24:40.659Z,68.33
2018-05-18T11:25:40.689Z,69.10
2018-05-18T11:26:40.730Z,69.10
2018-05-18T11:27:40.766Z,68.40
2018-05-18T11:28:40.806Z,68.21
2018-05-18T11:29:40.848Z,68.97
2018-05-18T11:30:40.884Z,69.51
2018-05-18T11:31:40.921Z,69.70
2018-05-18T11:32:40.960Z,69.74
2018-05-18T11:33:40.997Z,69.83
2018-05-18T11:34:41.035Z,69.74
2018-05-18T11:35:41.075Z,69.77
2018-05-18T11:36:41.124Z,69.39
2018-05-18T11:37:41.150Z,68.72
2018-05-18T11:38:41.188Z,69.87
2018-05-18T11:39:41.228Z,68.33
2018-05-18T11:40:41.265Z,68.14
2018-05-18T11:41:41.305Z,69.39
2018-05-18T11:42:41.342Z,69.10
2018-05-18T11:43:41.380Z,68.33
2018-05-18T11:44:41.429Z,68.18
2018-05-18T11:45:41.456Z,67.57
2018-05-18T11:46:41.735Z,67.50
2018-05-18T11:47:41.534Z,67.32
2018-05-18T11:48:41.573Z,67.12
2018-05-18T11:49:41.609Z,66.16
2018-05-18T11:50:41.648Z,66.16
2018-05-18T11:51:41.687Z,66.58
2018-05-18T11:52:41.726Z,66.29
2018-05-18T11:53:41.764Z,65.49
2018-05-18T11:54:41.881Z,65.20
2018-05-18T11:55:41.843Z,65.88
2018-05-18T11:56:41.881Z,65.97
2018-05-18T11:57:41.934Z,67.12
2018-05-18T11:58:42.008Z,67.47
2018-05-18T11:59:41.995Z,68.11
2018-05-18T12:00:42.134Z,68.68
2018-05-18T12:02:02.023Z,70.03
2018-05-18T12:03:02.058Z,70.28
2018-05-18T12:04:02.105Z,70.09
2018-05-18T12:05:02.184Z,70.66
2018-05-18T12:06:02.178Z,70.66
2018-05-18T12:07:02.213Z,70.66
2018-05-18T12:08:02.250Z,70.66
2018-05-18T12:09:02.291Z,69.89
2018-05-18T12:10:02.335Z,70.28
2018-05-18T12:11:02.368Z,70.21
2018-05-18T12:12:02.408Z,69.83
2018-05-18T12:13:02.452Z,70.12
2018-05-18T12:14:02.490Z,69.26
2018-05-18T12:15:02.522Z,69.45
2018-05-18T12:16:02.559Z,69.54
2018-05-18T12:17:02.597Z,69.74
2018-05-18T12:18:02.633Z,69.80
2018-05-18T12:19:02.684Z,70.95
2018-05-18T12:20:02.718Z,71.08
2018-05-18T12:21:02.754Z,69.70
2018-05-18T12:22:02.797Z,69.64
2018-05-18T12:23:02.831Z,69.74
2018-05-18T12:24:02.866Z,68.78
2018-05-18T12:25:02.901Z,68.30
2018-05-18T12:26:03.028Z,68.78
2018-05-18T12:27:02.979Z,68.59
2018-05-18T12:28:03.019Z,68.87
2018-05-18T12:29:03.055Z,69.17
2018-05-18T12:30:03.101Z,68.40
2018-05-18T12:31:03.138Z,68.49
2018-05-18T12:32:03.175Z,68.11
2018-05-18T12:33:03.210Z,68.68
2018-05-18T12:34:03.245Z,68.81
2018-05-18T12:35:03.283Z,69.87
2018-05-18T12:36:03.322Z,67.95
2018-05-18T12:37:03.363Z,68.14
2018-05-18T12:38:03.495Z,67.57
2018-05-18T12:39:03.437Z,67.47
2018-05-18T12:40:03.475Z,67.09
2018-05-18T12:41:03.515Z,66.96
2018-05-18T12:42:03.594Z,68.01
2018-05-18T12:43:03.592Z,68.33
2018-05-18T12:44:03.628Z,67.82
2018-05-18T12:45:03.666Z,68.68
2018-05-18T12:46:03.706Z,68.11
2018-05-18T12:47:03.743Z,68.21
2018-05-18T12:48:03.780Z,69.17
2018-05-18T12:49:03.828Z,69.35
2018-05-18T12:50:03.856Z,69.83
2018-05-18T12:51:03.894Z,68.87
2018-05-18T12:52:03.942Z,69.17
2018-05-18T12:53:03.978Z,69.54